Wetterdaten: Woche 22.10.18 - 28.10.18 (KW43)
Datum Zeit Temperatur Luftfeuchte Luftdruck Niederschlag Windrichtung Sonnenschein Solar Wind
22.10.2018 00:00 4,5 C 82 % 1024,2 hPa 0,0 l/m N 0,00 h 0 W/m 0,9 km/h (0 Bft)
22.10.2018 01:00 3,8 C 84 % 1024,0 hPa 0,0 l/m N 0,00 h 0 W/m 1,2 km/h (1 Bft)
22.10.2018 02:00 3,4 C 86 % 1023,9 hPa 0,0 l/m N 0,00 h 0 W/m 0,0 km/h (0 Bft)
22.10.2018 03:00 2,7 C 86 % 1023,8 hPa 0,0 l/m N 0,00 h 0 W/m 0,0 km/h (0 Bft)
22.10.2018 04:00 2,1 C 88 % 1023,9 hPa 0,0 l/m N 0,00 h 0 W/m 0,1 km/h (0 Bft)
22.10.2018 05:00 1,8 C 90 % 1024,0 hPa 0,0 l/m N 0,00 h 0 W/m 1,9 km/h (1 Bft)
22.10.2018 06:00 1,4 C 91 % 1024,1 hPa 0,0 l/m N 0,00 h 0 W/m 0,0 km/h (0 Bft)
22.10.2018 07:00 1,3 C 92 % 1024,2 hPa 0,0 l/m N-NO 0,00 h 7 W/m 6,7 km/h (2 Bft)
22.10.2018 08:00 1,5 C 93 % 1024,9 hPa 0,0 l/m N 0,58 h 57 W/m 6,3 km/h (2 Bft)
22.10.2018 09:00 3,3 C 93 % 1025,7 hPa 0,0 l/m N-NO 1,00 h 200 W/m 6,7 km/h (2 Bft)
22.10.2018 10:00 5,5 C 87 % 1026,1 hPa 0,0 l/m O-NO 1,00 h 354 W/m 13,8 km/h (3 Bft)
22.10.2018 11:00 8,1 C 77 % 1026,3 hPa 0,0 l/m O-NO 1,00 h 457 W/m 12,1 km/h (2 Bft)
22.10.2018 12:00 10,9 C 64 % 1026,4 hPa 0,0 l/m O-SO 1,00 h 517 W/m 19,0 km/h (3 Bft)
22.10.2018 13:00 12,4 C 58 % 1026,2 hPa 0,0 l/m O-NO 1,00 h 521 W/m 18,4 km/h (3 Bft)
22.10.2018 14:00 13,1 C 57 % 1026,0 hPa 0,0 l/m NO 1,00 h 472 W/m 16,0 km/h (3 Bft)
22.10.2018 15:00 13,3 C 57 % 1026,1 hPa 0,0 l/m NO 1,00 h 378 W/m 14,9 km/h (3 Bft)
22.10.2018 16:00 13,0 C 58 % 1026,4 hPa 0,0 l/m NO 1,00 h 238 W/m 12,9 km/h (3 Bft)
22.10.2018 17:00 12,1 C 61 % 1026,8 hPa 0,0 l/m O-NO 0,50 h 72 W/m 10,6 km/h (2 Bft)
22.10.2018 18:00 10,6 C 67 % 1027,3 hPa 0,0 l/m N 0,08 h 10 W/m 0,7 km/h (0 Bft)
22.10.2018 19:00 9,1 C 75 % 1027,9 hPa 0,0 l/m N 0,00 h 0 W/m 0,3 km/h (0 Bft)
22.10.2018 20:00 9,0 C 76 % 1028,4 hPa 0,0 l/m N 0,00 h 0 W/m 0,0 km/h (0 Bft)
22.10.2018 21:00 8,9 C 76 % 1028,9 hPa 0,0 l/m N 0,00 h 0 W/m 0,5 km/h (0 Bft)
22.10.2018 22:00 8,5 C 77 % 1029,1 hPa 0,0 l/m N 0,00 h 0 W/m 0,0 km/h (0 Bft)
22.10.2018 23:00 7,9 C 79 % 1029,2 hPa 0,0 l/m N 0,00 h 0 W/m 0,0 km/h (0 Bft)
23.10.2018 00:00 6,7 C 81 % 1029,2 hPa 0,0 l/m O-NO 0,00 h 0 W/m 1,2 km/h (1 Bft)
23.10.2018 01:00 5,7 C 84 % 1029,3 hPa 0,0 l/m N 0,00 h 0 W/m 0,0 km/h (0 Bft)
23.10.2018 02:00 4,8 C 85 % 1029,1 hPa 0,0 l/m N 0,00 h 0 W/m 0,3 km/h (0 Bft)
23.10.2018 03:00 4,6 C 89 % 1029,3 hPa 0,0 l/m N 0,00 h 0 W/m 0,0 km/h (0 Bft)
23.10.2018 04:00 4,2 C 90 % 1028,6 hPa 0,0 l/m N 0,00 h 0 W/m 0,0 km/h (0 Bft)
23.10.2018 05:00 4,0 C 92 % 1028,9 hPa 0,0 l/m N 0,00 h 0 W/m 0,3 km/h (0 Bft)
23.10.2018 06:00 4,7 C 93 % 1028,5 hPa 0,0 l/m N 0,00 h 0 W/m 0,0 km/h (0 Bft)
23.10.2018 07:00 4,6 C 93 % 1028,1 hPa 0,0 l/m N 0,00 h 6 W/m 0,0 km/h (0 Bft)
23.10.2018 08:00 5,1 C 94 % 1027,6 hPa 0,0 l/m O-NO 0,00 h 31 W/m 3,0 km/h (1 Bft)
23.10.2018 09:00 6,0 C 95 % 1027,7 hPa 0,0 l/m O-SO 0,00 h 79 W/m 5,1 km/h (1 Bft)
23.10.2018 10:00 6,4 C 96 % 1028,2 hPa 0,0 l/m S 0,00 h 138 W/m 1,9 km/h (1 Bft)
23.10.2018 11:00 8,0 C 92 % 1027,7 hPa 0,0 l/m SW 0,75 h 297 W/m 11,4 km/h (2 Bft)
23.10.2018 12:00 8,9 C 89 % 1027,3 hPa 0,0 l/m S-SW 0,25 h 245 W/m 13,4 km/h (3 Bft)
23.10.2018 13:00 10,0 C 87 % 1026,5 hPa 0,0 l/m S-SW 0,92 h 334 W/m 14,0 km/h (3 Bft)
23.10.2018 14:00 11,5 C 77 % 1025,5 hPa 0,0 l/m W-SW 0,08 h 189 W/m 17,7 km/h (3 Bft)
23.10.2018 15:00 11,5 C 74 % 1024,9 hPa 0,0 l/m SW 0,00 h 69 W/m 14,1 km/h (3 Bft)
23.10.2018 16:00 11,2 C 74 % 1024,0 hPa 0,0 l/m SW 0,00 h 59 W/m 17,6 km/h (3 Bft)
23.10.2018 17:00 10,9 C 75 % 1023,7 hPa 0,0 l/m SW 0,00 h 30 W/m 16,8 km/h (3 Bft)
23.10.2018 18:00 10,6 C 77 % 1023,8 hPa 0,0 l/m SW 0,00 h 8 W/m 14,0 km/h (3 Bft)
23.10.2018 19:00 10,8 C 76 % 1023,7 hPa 0,0 l/m SW 0,00 h 0 W/m 19,4 km/h (3 Bft)
23.10.2018 20:00 10,6 C 77 % 1024,1 hPa 0,0 l/m SW 0,00 h 0 W/m 16,5 km/h (3 Bft)
23.10.2018 21:00 11,0 C 70 % 1024,0 hPa 0,0 l/m SW 0,00 h 0 W/m 22,0 km/h (4 Bft)
23.10.2018 22:00 11,3 C 67 % 1024,3 hPa 0,0 l/m SW 0,00 h 0 W/m 20,4 km/h (4 Bft)
23.10.2018 23:00 11,4 C 65 % 1024,2 hPa 0,0 l/m SW 0,00 h 0 W/m 16,5 km/h (3 Bft)
24.10.2018 00:00 11,0 C 64 % 1023,8 hPa 0,0 l/m SW 0,00 h 0 W/m 14,8 km/h (3 Bft)
24.10.2018 01:00 10,6 C 66 % 1023,5 hPa 0,0 l/m SW 0,00 h 0 W/m 10,6 km/h (2 Bft)
24.10.2018 02:00 10,6 C 64 % 1023,0 hPa 0,0 l/m W-SW 0,00 h 0 W/m 20,4 km/h (4 Bft)
24.10.2018 03:00 10,5 C 61 % 1022,5 hPa 0,0 l/m W 0,00 h 0 W/m 17,6 km/h (3 Bft)
24.10.2018 04:00 10,4 C 60 % 1022,3 hPa 0,0 l/m W-SW 0,00 h 0 W/m 23,4 km/h (4 Bft)
24.10.2018 05:00 10,2 C 63 % 1021,7 hPa 0,0 l/m W 0,00 h 0 W/m 18,0 km/h (3 Bft)
24.10.2018 06:00 10,2 C 65 % 1022,1 hPa 0,0 l/m SW 0,00 h 0 W/m 18,5 km/h (3 Bft)
24.10.2018 07:00 9,9 C 69 % 1021,9 hPa 0,0 l/m SW 0,00 h 0 W/m 18,9 km/h (3 Bft)
24.10.2018 08:00 9,8 C 72 % 1021,9 hPa 0,0 l/m W 0,00 h 8 W/m 20,6 km/h (4 Bft)
24.10.2018 09:00 10,0 C 77 % 1022,5 hPa 0,0 l/m W 0,00 h 27 W/m 23,6 km/h (4 Bft)
24.10.2018 10:00 10,0 C 85 % 1022,9 hPa 0,0 l/m W 0,00 h 39 W/m 24,4 km/h (4 Bft)
24.10.2018 11:00 10,0 C 86 % 1023,2 hPa 0,0 l/m W-SW 0,00 h 64 W/m 24,4 km/h (4 Bft)
24.10.2018 12:00 10,2 C 90 % 1023,1 hPa 0,0 l/m W 0,00 h 90 W/m 21,9 km/h (4 Bft)
24.10.2018 13:00 10,5 C 91 % 1023,1 hPa 0,0 l/m W 0,00 h 72 W/m 16,9 km/h (3 Bft)
24.10.2018 14:00 11,6 C 87 % 1022,6 hPa 0,0 l/m W-SW 0,00 h 134 W/m 20,1 km/h (4 Bft)
24.10.2018 15:00 12,4 C 84 % 1022,4 hPa 0,0 l/m W 0,00 h 105 W/m 18,5 km/h (3 Bft)
24.10.2018 16:00 12,7 C 84 % 1022,5 hPa 0,0 l/m W 0,00 h 75 W/m 18,4 km/h (3 Bft)
24.10.2018 17:00 12,3 C 87 % 1023,0 hPa 0,0 l/m W 0,00 h 30 W/m 14,1 km/h (3 Bft)
24.10.2018 18:00 11,7 C 91 % 1023,2 hPa 0,0 l/m W 0,08 h 9 W/m 8,0 km/h (2 Bft)
24.10.2018 19:00 11,3 C 92 % 1023,2 hPa 0,0 l/m W 0,00 h 0 W/m 11,8 km/h (2 Bft)
24.10.2018 20:00 11,0 C 92 % 1023,4 hPa 0,0 l/m W 0,00 h 0 W/m 13,4 km/h (3 Bft)
24.10.2018 21:00 10,8 C 92 % 1023,2 hPa 0,0 l/m W-NW 0,00 h 0 W/m 9,5 km/h (2 Bft)
24.10.2018 22:00 10,6 C 92 % 1023,2 hPa 0,0 l/m N 0,00 h 0 W/m 2,7 km/h (1 Bft)
24.10.2018 23:00 10,6 C 92 % 1023,1 hPa 0,0 l/m N 0,00 h 0 W/m 0,3 km/h (0 Bft)
25.10.2018 00:00 10,4 C 93 % 1023,1 hPa 0,0 l/m W-NW 0,00 h 0 W/m 0,9 km/h (0 Bft)
25.10.2018 01:00 10,1 C 93 % 1022,8 hPa 0,0 l/m N 0,00 h 0 W/m 0,5 km/h (0 Bft)
25.10.2018 02:00 9,9 C 94 % 1022,2 hPa 0,0 l/m N 0,00 h 0 W/m 0,0 km/h (0 Bft)
25.10.2018 03:00 9,9 C 95 % 1021,7 hPa 0,0 l/m W-NW 0,00 h 0 W/m 2,1 km/h (1 Bft)
25.10.2018 04:00 10,1 C 95 % 1021,3 hPa 0,0 l/m W-NW 0,00 h 0 W/m 3,1 km/h (1 Bft)
25.10.2018 05:00 10,2 C 95 % 1021,1 hPa 0,0 l/m W-NW 0,00 h 0 W/m 1,9 km/h (1 Bft)
25.10.2018 06:00 10,1 C 94 % 1020,4 hPa 0,0 l/m N 0,00 h 0 W/m 0,0 km/h (0 Bft)
25.10.2018 07:00 9,7 C 94 % 1019,7 hPa 0,0 l/m W-NW 0,00 h 6 W/m 0,5 km/h (0 Bft)
25.10.2018 08:00 8,6 C 94 % 1019,2 hPa 0,0 l/m W-NW 0,25 h 41 W/m 0,8 km/h (0 Bft)
25.10.2018 09:00 8,8 C 96 % 1019,2 hPa 0,0 l/m N 1,00 h 191 W/m 0,0 km/h (0 Bft)
25.10.2018 10:00 11,0 C 94 % 1019,0 hPa 0,0 l/m N 1,00 h 321 W/m 0,3 km/h (0 Bft)
25.10.2018 11:00 13,0 C 85 % 1018,7 hPa 0,0 l/m W 0,75 h 331 W/m 9,3 km/h (2 Bft)
25.10.2018 12:00 15,1 C 76 % 1018,1 hPa 0,0 l/m W 1,00 h 460 W/m 9,5 km/h (2 Bft)
25.10.2018 13:00 16,2 C 70 % 1017,4 hPa 0,0 l/m W 0,92 h 486 W/m 13,3 km/h (3 Bft)
25.10.2018 14:00 17,2 C 68 % 1016,6 hPa 0,0 l/m W-NW 1,00 h 519 W/m 11,5 km/h (2 Bft)
25.10.2018 15:00 17,1 C 68 % 1015,9 hPa 0,0 l/m N-NO 1,00 h 372 W/m 11,0 km/h (2 Bft)
25.10.2018 16:00 16,0 C 70 % 1015,5 hPa 0,0 l/m N-NO 1,00 h 222 W/m 11,6 km/h (2 Bft)
25.10.2018 17:00 14,5 C 73 % 1015,2 hPa 0,0 l/m N-NO 0,50 h 60 W/m 3,2 km/h (1 Bft)
25.10.2018 18:00 12,4 C 78 % 1015,2 hPa 0,0 l/m N 0,08 h 9 W/m 0,0 km/h (0 Bft)
25.10.2018 19:00 10,9 C 80 % 1015,5 hPa 0,0 l/m N 0,00 h 0 W/m 0,0 km/h (0 Bft)
25.10.2018 20:00 9,1 C 83 % 1015,5 hPa 0,0 l/m N 0,00 h 0 W/m 0,0 km/h (0 Bft)
25.10.2018 21:00 7,7 C 86 % 1015,2 hPa 0,0 l/m N 0,00 h 0 W/m 0,0 km/h (0 Bft)
25.10.2018 22:00 6,7 C 89 % 1015,6 hPa 0,0 l/m N 0,00 h 0 W/m 0,0 km/h (0 Bft)
25.10.2018 23:00 7,2 C 93 % 1015,7 hPa 0,0 l/m N 0,00 h 0 W/m 0,0 km/h (0 Bft)
26.10.2018 00:00 7,7 C 94 % 1015,1 hPa 0,0 l/m N 0,00 h 0 W/m 0,0 km/h (0 Bft)
26.10.2018 01:00 7,9 C 95 % 1014,6 hPa 0,0 l/m N 0,00 h 0 W/m 0,0 km/h (0 Bft)
26.10.2018 02:00 8,2 C 95 % 1013,9 hPa 0,0 l/m N 0,00 h 0 W/m 0,0 km/h (0 Bft)
26.10.2018 03:00 8,3 C 95 % 1013,2 hPa 0,0 l/m N 0,00 h 0 W/m 0,0 km/h (0 Bft)
26.10.2018 04:00 8,3 C 94 % 1012,5 hPa 0,0 l/m N 0,00 h 0 W/m 0,0 km/h (0 Bft)
26.10.2018 05:00 8,3 C 93 % 1011,8 hPa 0,0 l/m N 0,00 h 0 W/m 0,0 km/h (0 Bft)
26.10.2018 06:00 8,4 C 92 % 1011,3 hPa 0,0 l/m N 0,00 h 0 W/m 0,0 km/h (0 Bft)
26.10.2018 07:00 8,4 C 92 % 1011,0 hPa 0,0 l/m N 0,00 h 0 W/m 0,0 km/h (0 Bft)
26.10.2018 08:00 8,5 C 92 % 1011,0 hPa 0,0 l/m N 0,00 h 29 W/m 0,4 km/h (0 Bft)
26.10.2018 09:00 8,8 C 92 % 1011,1 hPa 0,0 l/m N-NO 0,00 h 68 W/m 6,2 km/h (2 Bft)
26.10.2018 10:00 9,2 C 92 % 1010,4 hPa 0,0 l/m S-SW 0,50 h 237 W/m 16,5 km/h (3 Bft)
26.10.2018 11:00 10,3 C 86 % 1009,9 hPa 0,0 l/m SW 0,92 h 423 W/m 16,4 km/h (3 Bft)
26.10.2018 12:00 12,4 C 77 % 1009,1 hPa 0,0 l/m SW 1,00 h 501 W/m 14,5 km/h (3 Bft)
26.10.2018 13:00 13,8 C 73 % 1008,0 hPa 0,0 l/m S-SW 1,00 h 505 W/m 17,3 km/h (3 Bft)
26.10.2018 14:00 14,1 C 71 % 1007,1 hPa 0,0 l/m S-SW 1,00 h 438 W/m 18,0 km/h (3 Bft)
26.10.2018 15:00 14,2 C 70 % 1006,3 hPa 0,0 l/m S-SW 1,00 h 364 W/m 16,2 km/h (3 Bft)
26.10.2018 16:00 14,5 C 60 % 1005,8 hPa 0,0 l/m W-SW 1,00 h 223 W/m 13,4 km/h (3 Bft)
26.10.2018 17:00 13,2 C 63 % 1005,6 hPa 0,0 l/m W-SW 0,33 h 50 W/m 10,2 km/h (2 Bft)
26.10.2018 18:00 11,7 C 69 % 1005,5 hPa 0,0 l/m W-SW 0,00 h 6 W/m 15,8 km/h (3 Bft)
26.10.2018 19:00 11,6 C 65 % 1005,6 hPa 0,0 l/m W-SW 0,00 h 0 W/m 16,4 km/h (3 Bft)
26.10.2018 20:00 11,2 C 63 % 1005,8 hPa 0,0 l/m W-SW 0,00 h 0 W/m 12,6 km/h (3 Bft)
26.10.2018 21:00 10,8 C 65 % 1006,1 hPa 0,0 l/m W-NW 0,00 h 0 W/m 10,6 km/h (2 Bft)
26.10.2018 22:00 9,9 C 72 % 1006,0 hPa 0,0 l/m W-NW 0,00 h 0 W/m 2,8 km/h (1 Bft)
26.10.2018 23:00 9,2 C 76 % 1006,1 hPa 0,0 l/m W-NW 0,00 h 0 W/m 2,5 km/h (1 Bft)
27.10.2018 00:00 8,7 C 78 % 1005,8 hPa 0,0 l/m NW 0,00 h 0 W/m 5,1 km/h (1 Bft)
27.10.2018 01:00 8,0 C 80 % 1005,6 hPa 0,0 l/m N 0,00 h 0 W/m 0,0 km/h (0 Bft)
27.10.2018 02:00 7,0 C 84 % 1005,5 hPa 0,0 l/m N 0,00 h 0 W/m 0,0 km/h (0 Bft)
27.10.2018 03:00 6,5 C 86 % 1005,6 hPa 0,0 l/m N 0,00 h 0 W/m 0,0 km/h (0 Bft)
27.10.2018 04:00 6,4 C 88 % 1005,7 hPa 0,0 l/m N 0,00 h 0 W/m 0,0 km/h (0 Bft)
27.10.2018 05:00 6,5 C 89 % 1005,7 hPa 0,6 l/m NW 0,00 h 0 W/m 2,1 km/h (1 Bft)
27.10.2018 06:00 6,6 C 92 % 1005,6 hPa 3,2 l/m NW 0,00 h 0 W/m 6,4 km/h (2 Bft)
27.10.2018 07:00 6,3 C 94 % 1005,7 hPa 1,8 l/m W 0,00 h 0 W/m 5,9 km/h (2 Bft)
27.10.2018 08:00 6,3 C 95 % 1005,4 hPa 1,2 l/m N 0,00 h 12 W/m 0,0 km/h (0 Bft)
27.10.2018 09:00 6,1 C 95 % 1005,8 hPa 1,2 l/m W 0,00 h 15 W/m 5,1 km/h (1 Bft)
27.10.2018 10:00 5,1 C 95 % 1006,0 hPa 1,4 l/m N-NO 0,00 h 40 W/m 12,0 km/h (2 Bft)
27.10.2018 11:00 4,3 C 95 % 1006,5 hPa 1,4 l/m N 0,00 h 46 W/m 7,5 km/h (2 Bft)
27.10.2018 12:00 4,0 C 95 % 1006,6 hPa 1,2 l/m N-NO 0,00 h 55 W/m 8,7 km/h (2 Bft)
27.10.2018 13:00 3,8 C 94 % 1006,4 hPa 1,0 l/m N-NO 0,00 h 67 W/m 3,2 km/h (1 Bft)
27.10.2018 14:00 4,1 C 94 % 1006,1 hPa 0,8 l/m N 0,00 h 76 W/m 1,2 km/h (1 Bft)
27.10.2018 15:00 4,2 C 94 % 1005,9 hPa 0,4 l/m N-NO 0,00 h 54 W/m 1,7 km/h (1 Bft)
27.10.2018 16:00 4,2 C 94 % 1005,9 hPa 0,2 l/m NO 0,00 h 35 W/m 2,8 km/h (1 Bft)
27.10.2018 17:00 4,2 C 95 % 1006,0 hPa 0,4 l/m NO 0,00 h 19 W/m 5,3 km/h (1 Bft)
27.10.2018 18:00 4,0 C 95 % 1006,3 hPa 0,2 l/m O-NO 0,00 h 0 W/m 7,8 km/h (2 Bft)
27.10.2018 19:00 3,6 C 95 % 1006,3 hPa 0,4 l/m O-NO 0,00 h 0 W/m 10,9 km/h (2 Bft)
27.10.2018 20:00 3,2 C 95 % 1006,1 hPa 1,0 l/m O-NO 0,00 h 0 W/m 10,5 km/h (2 Bft)
27.10.2018 21:00 2,9 C 96 % 1005,8 hPa 0,8 l/m O-NO 0,00 h 0 W/m 12,1 km/h (2 Bft)
27.10.2018 22:00 2,8 C 96 % 1006,0 hPa 0,8 l/m O-NO 0,00 h 0 W/m 14,6 km/h (3 Bft)
27.10.2018 23:00 2,7 C 96 % 1005,8 hPa 1,0 l/m O-NO 0,00 h 0 W/m 15,4 km/h (3 Bft)
28.10.2018 00:00 2,4 C 96 % 1005,0 hPa 0,8 l/m O-NO 0,00 h 0 W/m 10,7 km/h (2 Bft)
28.10.2018 01:00 2,1 C 96 % 1004,5 hPa 0,8 l/m NO 0,00 h 0 W/m 16,6 km/h (3 Bft)
28.10.2018 02:00 1,2 C 96 % 1004,0 hPa 0,6 l/m NO 0,00 h 0 W/m 12,8 km/h (3 Bft)
28.10.2018 03:00 0,8 C 97 % 1003,8 hPa 0,0 l/m N-NO 0,00 h 0 W/m 12,4 km/h (3 Bft)
28.10.2018 04:00 0,7 C 97 % 1003,8 hPa 0,0 l/m N-NO 0,00 h 0 W/m 12,8 km/h (3 Bft)
28.10.2018 05:00 0,6 C 97 % 1003,7 hPa 0,0 l/m NO 0,00 h 0 W/m 13,4 km/h (3 Bft)
28.10.2018 06:00 0,6 C 97 % 1003,6 hPa 0,0 l/m O-NO 0,00 h 0 W/m 14,9 km/h (3 Bft)
28.10.2018 07:00 0,6 C 97 % 1003,4 hPa 0,0 l/m NO 0,00 h 10 W/m 16,0 km/h (3 Bft)
28.10.2018 08:00 0,7 C 97 % 1003,5 hPa 0,2 l/m NO 0,00 h 26 W/m 18,8 km/h (3 Bft)
28.10.2018 09:00 0,8 C 97 % 1003,3 hPa 2,2 l/m O-NO 0,00 h 24 W/m 21,2 km/h (4 Bft)
28.10.2018 10:00 0,9 C 98 % 1003,3 hPa 2,6 l/m O-NO 0,00 h 49 W/m 22,4 km/h (4 Bft)
28.10.2018 11:00 1,0 C 97 % 1003,4 hPa 2,0 l/m NO 0,00 h 56 W/m 19,0 km/h (3 Bft)
28.10.2018 12:00 1,2 C 97 % 1003,6 hPa 1,0 l/m NO 0,00 h 54 W/m 17,6 km/h (3 Bft)
28.10.2018 13:00 1,3 C 98 % 1004,0 hPa 0,2 l/m N-NO 0,00 h 46 W/m 13,3 km/h (3 Bft)
28.10.2018 14:00 1,3 C 98 % 1004,1 hPa 0,0 l/m N-NO 0,00 h 43 W/m 14,8 km/h (3 Bft)
28.10.2018 15:00 1,3 C 98 % 1004,2 hPa 0,0 l/m NO 0,00 h 21 W/m 16,2 km/h (3 Bft)
28.10.2018 16:00 1,3 C 98 % 1004,4 hPa 0,0 l/m NO 0,00 h 8 W/m 17,4 km/h (3 Bft)
28.10.2018 17:00 1,3 C 98 % 1004,4 hPa 0,0 l/m O-NO 0,00 h 0 W/m 16,6 km/h (3 Bft)
28.10.2018 18:00 1,3 C 98 % 1004,5 hPa 0,4 l/m O-NO 0,00 h 0 W/m 17,6 km/h (3 Bft)
28.10.2018 19:00 1,3 C 98 % 1004,6 hPa 0,0 l/m NO 0,00 h 0 W/m 14,4 km/h (3 Bft)
28.10.2018 20:00 1,3 C 98 % 1004,3 hPa 0,0 l/m O-NO 0,00 h 0 W/m 13,6 km/h (3 Bft)
28.10.2018 21:00 1,4 C 98 % 1004,2 hPa 0,0 l/m O-NO 0,00 h 0 W/m 12,9 km/h (3 Bft)
28.10.2018 22:00 1,3 C 98 % 1004,4 hPa 0,0 l/m NO 0,00 h 0 W/m 8,4 km/h (2 Bft)
28.10.2018 23:00 1,3 C 98 % 1004,2 hPa 0,0 l/m NO 0,00 h 0 W/m 8,7 km/h (2 Bft)
Min-Datum _ 28.10.18 22.10.18 28.10.18 - - - - 22.10.18
_ Min-Zeit 04:45 14:45 09:55 - - - - 00:05
Minimum _ 0,6 C 56 % 1002,8 hPa - - - - 0,0 km/h (0 Bft)
Max-Datum _ 25.10.18 28.10.18 23.10.18 27.10.18 - 22.10.18 25.10.18 24.10.18
_ Max-Zeit 14:40 09:35 01:10 06:05 - 08:05 14:15 09:55
Maximum _ 17,7 C 98 % 1029,6 hPa 3,2 l/m - 0,08 h 610 W/m 33,8 km/h
W (5 Bft)
Durchschnitt _ 7,7 C 85 % 1016,1 hPa #29,8 l/m O-NO #26:30 h 154 W/m 9,1 km/h (2 Bft)